createdAt,value
2019-01-04T00:01:17.646Z,14.03
2019-01-04T00:03:58.416Z,13.83
2019-01-04T00:06:38.526Z,13.80
2019-01-04T00:09:18.803Z,14.43
2019-01-04T00:11:59.025Z,15.10
2019-01-04T00:14:39.031Z,14.13
2019-01-04T00:17:19.175Z,14.33
2019-01-04T00:19:59.220Z,14.07
2019-01-04T00:22:39.113Z,15.30
2019-01-04T00:25:19.404Z,13.67
2019-01-04T00:27:47.326Z,15.17
2019-01-04T00:30:27.710Z,15.10
2019-01-04T00:33:07.813Z,15.03
2019-01-04T00:35:47.918Z,14.50
2019-01-04T00:38:28.231Z,13.90
2019-01-04T00:41:08.615Z,13.80
2019-01-04T00:43:48.422Z,14.30
2019-01-04T00:46:28.609Z,13.20
2019-01-04T00:49:08.479Z,13.93
2019-01-04T00:51:48.660Z,13.97
2019-01-04T00:54:28.698Z,14.23
2019-01-04T00:57:12.160Z,13.60
2019-01-04T00:59:52.001Z,14.10
2019-01-04T01:02:32.077Z,14.77
2019-01-04T01:05:12.270Z,14.03
2019-01-04T01:07:52.467Z,13.73
2019-01-04T01:10:33.623Z,12.73
2019-01-04T01:13:13.766Z,13.33
2019-01-04T01:15:53.939Z,13.17
2019-01-04T01:19:00.630Z,14.33
2019-01-04T01:21:41.198Z,15.50
2019-01-04T01:24:21.278Z,15.70
2019-01-04T01:27:01.506Z,16.10
2019-01-04T01:29:42.176Z,16.60
2019-01-04T01:32:22.751Z,14.87
2019-01-04T01:35:02.798Z,16.13
2019-01-04T01:37:42.869Z,16.60
2019-01-04T01:40:23.026Z,16.37
2019-01-04T01:45:43.221Z,15.37
2019-01-04T01:48:23.276Z,15.20
2019-01-04T01:51:03.630Z,14.40
2019-01-04T01:53:43.803Z,14.83
2019-01-04T01:59:19.873Z,14.83
2019-01-04T02:01:59.982Z,14.87
2019-01-04T02:04:40.214Z,14.60
2019-01-04T02:10:16.665Z,14.93
2019-01-04T02:12:57.434Z,14.93
2019-01-04T02:15:37.749Z,14.90
2019-01-04T02:18:17.730Z,15.50
2019-01-04T02:20:57.928Z,14.40
2019-01-04T02:23:38.114Z,14.40
2019-01-04T02:26:18.306Z,14.00
2019-01-04T02:28:58.186Z,13.47
2019-01-04T02:31:38.269Z,13.53
2019-01-04T02:34:18.516Z,14.37
2019-01-04T02:36:58.731Z,14.10
2019-01-04T02:39:38.861Z,14.33
2019-01-04T02:42:18.966Z,13.80
2019-01-04T02:44:58.990Z,13.97
2019-01-04T02:47:39.182Z,15.07
2019-01-04T02:50:19.401Z,13.90
2019-01-04T02:52:59.585Z,14.53
2019-01-04T02:55:39.614Z,15.00
2019-01-04T02:58:19.665Z,13.97
2019-01-04T03:00:59.821Z,15.43
2019-01-04T03:03:39.925Z,16.57
2019-01-04T03:06:19.799Z,14.23
2019-01-04T03:08:59.941Z,14.60
2019-01-04T03:11:41.016Z,16.10
2019-01-04T03:14:20.856Z,15.73
2019-01-04T03:17:00.939Z,16.40
2019-01-04T03:19:40.796Z,15.00
2019-01-04T03:22:20.794Z,16.60
2019-01-04T03:25:00.814Z,16.83
2019-01-04T03:27:40.637Z,16.43
2019-01-04T03:30:20.699Z,15.60
2019-01-04T03:33:00.706Z,16.03
2019-01-04T03:35:40.693Z,15.03
2019-01-04T03:38:20.885Z,16.67
2019-01-04T03:41:00.902Z,16.20
2019-01-04T03:43:41.114Z,16.70
2019-01-04T03:46:21.298Z,15.37
2019-01-04T03:49:01.418Z,16.00
2019-01-04T03:51:41.579Z,16.17
2019-01-04T03:54:21.640Z,15.37
2019-01-04T03:57:01.636Z,16.67
2019-01-04T03:59:41.645Z,15.67
2019-01-04T04:02:21.842Z,15.50
2019-01-04T04:05:02.350Z,15.07
2019-01-04T04:07:30.212Z,14.40
2019-01-04T04:10:17.409Z,14.43
2019-01-04T04:12:57.635Z,15.70
2019-01-04T04:15:37.719Z,14.67
2019-01-04T04:18:17.938Z,14.60
2019-01-04T04:20:58.139Z,14.10
2019-01-04T04:23:38.911Z,13.80
2019-01-04T04:26:18.931Z,17.10
2019-01-04T04:28:57.382Z,16.27
2019-01-04T04:31:38.067Z,15.13
2019-01-04T04:34:18.221Z,14.37
2019-01-04T04:36:58.240Z,15.57
2019-01-04T04:39:38.302Z,15.47
2019-01-04T04:44:58.858Z,14.63
2019-01-04T04:47:38.782Z,15.07
2019-01-04T04:50:19.314Z,15.63
2019-01-04T04:52:59.280Z,15.37
2019-01-04T04:55:39.345Z,16.77
2019-01-04T04:58:19.593Z,16.43
2019-01-04T05:00:59.727Z,16.53
2019-01-04T05:03:39.905Z,15.30
2019-01-04T05:06:20.062Z,15.90
2019-01-04T05:09:00.095Z,15.30
2019-01-04T05:11:41.246Z,16.70
2019-01-04T05:14:21.477Z,15.43
2019-01-04T05:17:01.694Z,15.67
2019-01-04T05:19:41.656Z,13.90
2019-01-04T05:22:21.780Z,15.03
2019-01-04T05:25:01.914Z,15.17
2019-01-04T05:27:42.007Z,13.57
2019-01-04T05:30:22.067Z,14.43
2019-01-04T05:33:02.414Z,13.50
2019-01-04T05:35:45.976Z,13.57
2019-01-04T05:38:26.378Z,14.37
2019-01-04T05:41:06.295Z,15.07
2019-01-04T05:43:46.374Z,14.77
2019-01-04T05:46:26.414Z,14.87
2019-01-04T05:49:07.056Z,13.43
2019-01-04T05:51:47.552Z,13.47
2019-01-04T05:54:27.598Z,13.47
2019-01-04T05:57:07.754Z,12.27
2019-01-04T05:59:47.944Z,13.77
2019-01-04T06:02:27.929Z,13.20
2019-01-04T06:05:08.098Z,13.00
2019-01-04T06:07:48.121Z,12.77
2019-01-04T06:10:28.227Z,13.63
2019-01-04T06:13:08.395Z,13.20
2019-01-04T06:15:48.503Z,13.53
2019-01-04T06:18:29.436Z,12.83
2019-01-04T06:21:11.805Z,11.80
2019-01-04T06:23:51.640Z,14.23
2019-01-04T06:26:31.900Z,12.80
2019-01-04T06:29:11.937Z,13.23
2019-01-04T06:31:52.016Z,13.10
2019-01-04T06:34:31.977Z,12.13
2019-01-04T06:37:12.003Z,12.90
2019-01-04T06:39:52.195Z,13.40
2019-01-04T06:42:32.354Z,14.00
2019-01-04T06:45:12.821Z,10.90
2019-01-04T06:47:53.329Z,12.20
2019-01-04T06:50:33.380Z,12.67
2019-01-04T06:53:13.406Z,12.90
2019-01-04T06:58:56.567Z,12.83
2019-01-04T07:01:37.599Z,12.73
2019-01-04T07:04:17.702Z,13.63
2019-01-04T07:06:58.455Z,12.03
2019-01-04T07:09:38.406Z,12.97
2019-01-04T07:12:18.661Z,12.53
2019-01-04T07:14:59.314Z,12.00
2019-01-04T07:17:39.265Z,12.47
2019-01-04T07:20:19.334Z,12.73
2019-01-04T07:22:59.538Z,13.13
2019-01-04T07:25:39.755Z,12.23
2019-01-04T07:28:19.680Z,11.40
2019-01-04T07:30:59.929Z,12.60
2019-01-04T07:33:39.869Z,12.70
2019-01-04T07:36:20.138Z,12.07
2019-01-04T07:38:59.998Z,12.67
2019-01-04T07:41:40.419Z,13.40
2019-01-04T07:44:21.145Z,13.20
2019-01-04T07:47:01.225Z,13.07
2019-01-04T07:49:41.265Z,14.17
2019-01-04T07:52:21.518Z,13.33
2019-01-04T07:57:41.345Z,14.27
2019-01-04T08:00:21.486Z,14.80
2019-01-04T08:03:02.505Z,13.67
2019-01-04T08:05:42.718Z,13.43
2019-01-04T08:08:22.975Z,13.13
2019-01-04T08:11:03.029Z,13.20
2019-01-04T08:13:43.154Z,13.67
2019-01-04T08:16:23.046Z,12.93
2019-01-04T08:19:03.283Z,12.60
2019-01-04T08:21:44.142Z,13.57
2019-01-04T08:24:24.313Z,13.97
2019-01-04T08:27:04.295Z,14.40
2019-01-04T08:29:44.314Z,13.33
2019-01-04T08:32:24.497Z,15.27
2019-01-04T08:35:04.799Z,14.20
2019-01-04T08:37:44.987Z,13.77
2019-01-04T08:40:25.229Z,15.73
2019-01-04T08:43:06.336Z,14.97
2019-01-04T08:45:46.303Z,16.37
2019-01-04T08:48:26.271Z,16.87
2019-01-04T08:51:06.502Z,16.53
2019-01-04T08:53:46.723Z,15.67
2019-01-04T08:56:27.804Z,15.90
2019-01-04T08:59:07.810Z,15.27
2019-01-04T09:01:48.252Z,15.47
2019-01-04T09:04:28.129Z,15.63
2019-01-04T09:07:08.139Z,15.23
2019-01-04T09:09:48.303Z,15.47
2019-01-04T09:12:28.645Z,15.10
2019-01-04T09:15:08.846Z,15.07
2019-01-04T09:17:48.971Z,15.77
2019-01-04T09:20:30.150Z,16.20
2019-01-04T09:23:10.343Z,14.90
2019-01-04T09:25:50.391Z,16.73
2019-01-04T09:28:30.576Z,15.27
2019-01-04T09:31:10.631Z,17.13
2019-01-04T09:33:50.636Z,15.53
2019-01-04T09:36:30.787Z,16.63
2019-01-04T09:39:10.873Z,16.07
2019-01-04T09:41:51.399Z,16.27
2019-01-04T09:44:32.322Z,15.60
2019-01-04T09:47:12.585Z,16.97
2019-01-04T09:49:57.038Z,16.97
2019-01-04T09:52:37.874Z,17.83
2019-01-04T09:55:18.095Z,16.53
2019-01-04T09:57:58.076Z,16.93
2019-01-04T10:00:38.617Z,17.73
2019-01-04T10:03:18.630Z,17.33
2019-01-04T10:05:58.818Z,17.47
2019-01-04T10:08:38.617Z,16.20
2019-01-04T10:11:18.925Z,17.83
2019-01-04T10:13:58.954Z,18.23
2019-01-04T10:16:39.006Z,16.90
2019-01-04T10:19:19.007Z,18.30
2019-01-04T10:21:59.252Z,19.63
2019-01-04T10:24:39.738Z,18.70
2019-01-04T10:27:19.674Z,19.00
2019-01-04T10:29:59.959Z,16.90
2019-01-04T10:32:39.877Z,19.10
2019-01-04T10:35:19.794Z,17.17
2019-01-04T10:40:48.157Z,17.47
2019-01-04T10:43:28.064Z,17.13
2019-01-04T10:46:08.286Z,18.30
2019-01-04T10:48:48.415Z,17.50
2019-01-04T10:51:28.475Z,18.23
2019-01-04T10:54:08.478Z,17.83
2019-01-04T10:56:48.653Z,18.37
2019-01-04T10:59:28.603Z,18.07
2019-01-04T11:02:09.510Z,17.93
2019-01-04T11:04:52.733Z,18.67
2019-01-04T11:07:32.987Z,18.23
2019-01-04T11:10:13.080Z,19.43
2019-01-04T11:12:40.741Z,19.53
2019-01-04T11:15:56.077Z,18.03
2019-01-04T11:18:36.784Z,17.70
2019-01-04T11:21:16.959Z,17.93
2019-01-04T11:23:57.156Z,17.77
2019-01-04T11:26:37.365Z,17.93
2019-01-04T11:29:44.142Z,16.73
2019-01-04T11:32:51.173Z,18.17
2019-01-04T11:35:31.879Z,17.07
2019-01-04T11:38:11.859Z,17.63
2019-01-04T11:40:52.139Z,16.70
2019-01-04T11:43:32.177Z,16.10
2019-01-04T11:46:12.391Z,17.07
2019-01-04T11:48:52.535Z,16.07
2019-01-04T11:51:32.760Z,15.47
2019-01-04T11:54:16.552Z,16.87
2019-01-04T11:56:57.104Z,15.50
2019-01-04T11:59:37.081Z,15.53
2019-01-04T12:02:17.114Z,15.20
2019-01-04T12:05:00.305Z,15.57
2019-01-04T12:07:40.426Z,14.20
2019-01-04T12:10:20.486Z,13.97
2019-01-04T12:13:00.465Z,13.87
2019-01-04T12:15:40.718Z,12.70
2019-01-04T12:18:20.896Z,13.33
2019-01-04T12:21:00.867Z,12.10
2019-01-04T12:23:40.990Z,12.27
2019-01-04T12:26:21.115Z,12.10
2019-01-04T12:29:01.054Z,12.53
2019-01-04T12:31:41.399Z,12.07
2019-01-04T12:34:21.637Z,12.90
2019-01-04T12:37:01.680Z,11.57
2019-01-04T12:39:41.885Z,13.23
2019-01-04T12:42:23.251Z,12.03
2019-01-04T12:45:03.268Z,12.23
2019-01-04T12:47:43.591Z,11.97
2019-01-04T12:50:24.357Z,13.63
2019-01-04T12:52:52.218Z,12.17
2019-01-04T12:55:19.871Z,11.87
2019-01-04T12:57:47.582Z,12.77
2019-01-04T13:00:15.436Z,14.07
2019-01-04T13:02:43.094Z,13.63
2019-01-04T13:05:10.689Z,13.97
2019-01-04T13:07:38.641Z,14.17
2019-01-04T13:10:06.592Z,14.13
2019-01-04T13:12:46.582Z,14.60
2019-01-04T13:15:26.549Z,14.90
2019-01-04T13:18:06.916Z,13.13
2019-01-04T13:20:46.727Z,12.93
2019-01-04T13:23:27.057Z,13.30
2019-01-04T13:26:07.128Z,13.47
2019-01-04T13:28:47.351Z,12.40
2019-01-04T13:31:27.366Z,13.70
2019-01-04T13:34:07.685Z,12.87
2019-01-04T13:36:47.751Z,13.87
2019-01-04T13:39:27.766Z,14.07
2019-01-04T13:42:07.826Z,14.03
2019-01-04T13:44:47.968Z,14.73
2019-01-04T13:47:32.204Z,13.73
2019-01-04T13:50:10.137Z,15.70
2019-01-04T13:52:50.198Z,15.80
2019-01-04T13:55:18.019Z,14.80
2019-01-04T13:57:58.444Z,16.97
2019-01-04T14:00:38.543Z,15.63
2019-01-04T14:03:21.813Z,15.53
2019-01-04T14:06:01.770Z,16.47
2019-01-04T14:08:29.951Z,16.73
2019-01-04T14:11:09.824Z,15.97
2019-01-04T14:13:50.059Z,15.83
2019-01-04T14:16:31.426Z,16.87
2019-01-04T14:19:11.991Z,16.40
2019-01-04T14:21:52.110Z,15.23
2019-01-04T14:24:32.203Z,15.90
2019-01-04T14:27:12.297Z,17.20
2019-01-04T14:29:52.891Z,16.40
2019-01-04T14:32:32.892Z,16.53
2019-01-04T14:35:13.767Z,16.53
2019-01-04T14:37:53.925Z,15.47
2019-01-04T14:40:33.917Z,16.17
2019-01-04T14:43:13.811Z,14.97
2019-01-04T14:45:53.850Z,15.57
2019-01-04T14:48:33.740Z,15.70
2019-01-04T14:51:04.693Z,15.73
2019-01-04T14:53:32.362Z,16.33
2019-01-04T14:56:00.288Z,15.83
2019-01-04T14:58:27.934Z,15.80
2019-01-04T15:00:55.615Z,16.07
2019-01-04T15:03:23.265Z,15.47
2019-01-04T15:05:50.957Z,15.17
2019-01-04T15:08:18.637Z,14.73
2019-01-04T15:10:46.303Z,15.37
2019-01-04T15:13:13.998Z,15.47
2019-01-04T15:15:41.679Z,14.20
2019-01-04T15:18:09.298Z,15.03
2019-01-04T15:20:36.981Z,14.47
2019-01-04T15:23:05.656Z,14.70
2019-01-04T15:25:33.321Z,13.27
2019-01-04T15:28:01.077Z,13.33
2019-01-04T15:30:28.949Z,14.07
2019-01-04T15:32:56.810Z,14.50
2019-01-04T15:35:24.519Z,12.90
2019-01-04T15:37:52.189Z,14.23
2019-01-04T15:40:19.907Z,14.57
2019-01-04T15:42:47.585Z,15.47
2019-01-04T15:45:15.403Z,14.93
2019-01-04T15:47:55.179Z,16.47
2019-01-04T15:50:35.482Z,15.83
2019-01-04T15:53:16.007Z,15.73
2019-01-04T15:55:56.820Z,14.93
2019-01-04T15:58:24.585Z,16.03
2019-01-04T16:00:52.335Z,15.37
2019-01-04T16:03:20.021Z,15.63
2019-01-04T16:05:47.682Z,16.47
2019-01-04T16:08:15.838Z,15.77
2019-01-04T16:10:43.682Z,16.13
2019-01-04T16:13:11.463Z,17.17
2019-01-04T16:15:39.327Z,16.33
2019-01-04T16:18:07.073Z,17.87
2019-01-04T16:20:34.827Z,17.40
2019-01-04T16:23:02.662Z,17.53
2019-01-04T16:25:30.488Z,18.40
2019-01-04T16:27:58.431Z,18.87
2019-01-04T16:30:26.405Z,20.03
2019-01-04T16:32:54.169Z,19.27
2019-01-04T16:35:22.145Z,20.37
2019-01-04T16:37:49.936Z,19.60
2019-01-04T16:40:17.841Z,20.00
2019-01-04T16:42:45.562Z,20.17
2019-01-04T16:45:13.312Z,20.07
2019-01-04T16:47:41.105Z,19.10
2019-01-04T16:50:09.060Z,20.17
2019-01-04T16:52:36.746Z,20.47
2019-01-04T16:55:04.968Z,19.23
2019-01-04T16:57:32.702Z,20.37
2019-01-04T17:00:00.401Z,20.17
2019-01-04T17:02:28.132Z,20.03
2019-01-04T17:04:56.699Z,19.50
2019-01-04T17:07:24.446Z,19.63
2019-01-04T17:09:52.200Z,20.00
2019-01-04T17:12:19.879Z,19.97
2019-01-04T17:14:47.580Z,20.33
2019-01-04T17:17:15.592Z,20.47
2019-01-04T17:19:43.689Z,19.13
2019-01-04T17:22:11.720Z,20.57
2019-01-04T17:24:40.414Z,20.53
2019-01-04T17:27:08.125Z,19.40
2019-01-04T17:29:35.848Z,21.07
2019-01-04T17:32:03.599Z,19.83
2019-01-04T17:34:31.381Z,19.87
2019-01-04T17:36:59.114Z,20.70
2019-01-04T17:39:26.763Z,19.63
2019-01-04T17:41:54.446Z,21.10
2019-01-04T17:44:22.358Z,19.70
2019-01-04T17:46:50.025Z,20.37
2019-01-04T17:49:17.681Z,18.90
2019-01-04T17:51:45.377Z,21.10
2019-01-04T17:54:13.061Z,20.53
2019-01-04T17:56:40.970Z,21.33
2019-01-04T17:59:08.688Z,21.60
2019-01-04T18:01:36.342Z,20.90
2019-01-04T18:04:04.061Z,20.77
2019-01-04T18:06:31.738Z,21.13
2019-01-04T18:08:59.408Z,21.80
2019-01-04T18:11:27.086Z,21.97
2019-01-04T18:13:54.793Z,23.17
2019-01-04T18:16:22.482Z,21.10
2019-01-04T18:18:50.394Z,21.53
2019-01-04T18:21:18.114Z,21.53
2019-01-04T18:23:45.797Z,21.43
2019-01-04T18:26:13.492Z,22.63
2019-01-04T18:28:42.176Z,22.93
2019-01-04T18:31:23.210Z,22.03
2019-01-04T18:34:03.446Z,22.87
2019-01-04T18:36:43.514Z,22.67
2019-01-04T18:39:26.689Z,23.70
2019-01-04T18:42:07.655Z,23.33
2019-01-04T18:44:47.430Z,23.40
2019-01-04T18:47:27.601Z,24.83
2019-01-04T18:50:13.850Z,24.03
2019-01-04T18:52:54.254Z,25.30
2019-01-04T18:55:34.378Z,23.53
2019-01-04T18:58:14.885Z,23.77
2019-01-04T19:00:54.682Z,24.63
2019-01-04T19:03:34.910Z,25.47
2019-01-04T19:06:15.034Z,25.73
2019-01-04T19:08:55.098Z,23.80
2019-01-04T19:11:35.127Z,25.70
2019-01-04T19:14:15.196Z,25.40
2019-01-04T19:16:55.579Z,25.37
2019-01-04T19:19:35.751Z,26.33
2019-01-04T19:22:15.670Z,27.30
2019-01-04T19:24:55.765Z,27.87
2019-01-04T19:27:35.881Z,28.13
2019-01-04T19:30:16.116Z,28.53
2019-01-04T19:32:56.265Z,27.50
2019-01-04T19:35:36.737Z,27.03
2019-01-04T19:38:16.820Z,28.30
2019-01-04T19:40:56.890Z,28.17
2019-01-04T19:43:37.173Z,27.20
2019-01-04T19:46:17.491Z,27.90
2019-01-04T19:48:57.695Z,26.53
2019-01-04T19:51:37.532Z,27.20
2019-01-04T19:54:17.868Z,27.97
2019-01-04T19:56:58.018Z,26.80
2019-01-04T19:59:37.982Z,27.53
2019-01-04T20:02:18.166Z,24.70
2019-01-04T20:04:58.144Z,26.10
2019-01-04T20:08:27.360Z,27.30
2019-01-04T20:11:27.188Z,26.13
2019-01-04T20:14:45.738Z,25.40
2019-01-04T20:17:45.246Z,23.03
2019-01-04T20:20:36.196Z,25.23
2019-01-04T20:23:36.584Z,25.13
2019-01-04T20:26:36.328Z,25.97
2019-01-04T20:29:36.291Z,24.77
2019-01-04T20:32:36.640Z,24.97
2019-01-04T20:35:36.858Z,24.03
2019-01-04T20:38:36.992Z,25.30
2019-01-04T20:41:42.728Z,25.90
2019-01-04T20:44:45.636Z,23.83
2019-01-04T20:47:51.678Z,23.03
2019-01-04T20:50:51.252Z,24.53
2019-01-04T20:53:50.594Z,24.37
2019-01-04T20:56:50.093Z,23.93
2019-01-04T20:59:49.353Z,23.47
2019-01-04T21:02:49.614Z,23.40
2019-01-04T21:05:49.670Z,24.23
2019-01-04T21:08:35.430Z,23.60
2019-01-04T21:11:23.077Z,23.00
2019-01-04T21:14:10.346Z,24.57
2019-01-04T21:16:57.610Z,22.87
2019-01-04T21:20:04.395Z,22.60
2019-01-04T21:22:56.927Z,23.00
2019-01-04T21:25:56.506Z,23.40
2019-01-04T21:28:43.711Z,23.43
2019-01-04T21:31:43.066Z,23.57
2019-01-04T21:34:43.164Z,22.20
2019-01-04T21:37:43.217Z,23.27
2019-01-04T21:40:49.290Z,21.23
2019-01-04T21:43:49.074Z,23.43
2019-01-04T21:46:55.033Z,23.60
2019-01-04T21:49:54.324Z,21.90
2019-01-04T21:52:53.578Z,22.40
2019-01-04T21:55:52.910Z,22.20
2019-01-04T21:58:40.127Z,22.93
2019-01-04T22:01:39.550Z,22.50
2019-01-04T22:04:39.833Z,22.80
2019-01-04T22:10:20.411Z,21.87
2019-01-04T22:13:15.604Z,21.17
2019-01-04T22:16:18.271Z,23.27
2019-01-04T22:19:17.877Z,20.93
2019-01-04T22:22:21.277Z,23.07
2019-01-04T22:25:21.197Z,23.43
2019-01-04T22:28:20.569Z,21.40
2019-01-04T22:31:26.509Z,22.47
2019-01-04T22:34:25.971Z,22.70
2019-01-04T22:37:25.949Z,23.33
2019-01-04T22:40:25.506Z,22.87
2019-01-04T22:43:25.494Z,22.97
2019-01-04T22:46:24.942Z,22.90
2019-01-04T22:49:25.078Z,23.20
2019-01-04T22:52:25.336Z,23.03
2019-01-04T22:55:31.344Z,22.63
2019-01-04T22:58:30.965Z,23.60
2019-01-04T23:01:31.417Z,22.43
2019-01-04T23:04:17.330Z,23.33
2019-01-04T23:07:03.048Z,23.80
2019-01-04T23:10:08.325Z,23.03
2019-01-04T23:12:53.000Z,24.33
2019-01-04T23:15:38.471Z,24.10
2019-01-04T23:18:25.890Z,23.80
2019-01-04T23:21:28.929Z,23.27
2019-01-04T23:24:32.078Z,23.70
2019-01-04T23:27:19.287Z,24.33
2019-01-04T23:30:16.450Z,23.37
2019-01-04T23:32:59.608Z,24.13
2019-01-04T23:35:51.580Z,23.87
2019-01-04T23:38:39.766Z,24.03
2019-01-04T23:41:25.350Z,24.00
2019-01-04T23:44:21.378Z,25.17
2019-01-04T23:47:08.072Z,24.23
2019-01-04T23:49:55.416Z,22.37
2019-01-04T23:52:49.578Z,24.83
2019-01-04T23:55:40.587Z,24.47
2019-01-04T23:58:26.497Z,24.20
